Time;durP1;ratioP1;P1;durP2;ratioP2;P2;SDS_P1;SDS_P2;PMS_P1;PMS_P2;Temp;Humidity;BMP_temperature;BMP_pressure;BME280_temperature;BME280_humidity;BME280_pressure;Samples;Min_cycle;Max_cycle;Signal;HPM_P1;HPM_P2
2023/03/12 00:01:21;;;;;;;6.95;3.25;;;1.10;99.90;;;;;;4949645;28;20032;-72
2023/03/12 00:03:47;;;;;;;9.90;3.22;;;1.10;99.90;;;;;;4950175;28;20119;-72
2023/03/12 00:06:14;;;;;;;9.13;3.63;;;1.10;99.90;;;;;;4951472;28;20031;-72
2023/03/12 00:08:43;;;;;;;9.10;3.58;;;1.10;99.90;;;;;;4951408;28;20051;-72
2023/03/12 00:11:11;;;;;;;10.55;3.75;;;1.00;99.90;;;;;;4954570;28;20162;-72
2023/03/12 00:13:38;;;;;;;12.85;4.85;;;1.00;99.90;;;;;;4949364;28;20122;-72
2023/03/12 00:16:12;;;;;;;12.00;5.65;;;1.00;99.90;;;;;;4950920;28;20035;-72
2023/03/12 00:18:41;;;;;;;12.40;5.00;;;1.00;99.90;;;;;;4961100;28;20547;-72
2023/03/12 00:21:07;;;;;;;12.77;5.05;;;0.90;99.90;;;;;;4953066;28;20035;-72
2023/03/12 00:23:33;;;;;;;8.48;3.85;;;0.90;99.90;;;;;;4954328;28;20058;-72
2023/03/12 00:26:13;;;;;;;8.43;3.38;;;0.90;99.90;;;;;;4954876;28;20031;-72
2023/03/12 00:28:40;;;;;;;8.68;3.03;;;0.90;99.90;;;;;;4952987;28;20450;-72
2023/03/12 00:31:18;;;;;;;10.40;3.10;;;0.80;99.90;;;;;;4956531;28;20121;-72
2023/03/12 00:33:44;;;;;;;6.07;2.47;;;0.80;99.90;;;;;;4949875;28;20034;-72
2023/03/12 00:36:10;;;;;;;6.97;2.80;;;0.70;99.90;;;;;;4952393;28;20027;-72
2023/03/12 00:38:36;;;;;;;11.60;3.22;;;0.70;99.90;;;;;;4950436;28;20533;-73
2023/03/12 00:41:01;;;;;;;6.22;2.40;;;0.60;99.90;;;;;;4949492;28;20038;-72
2023/03/12 00:43:27;;;;;;;7.45;2.10;;;0.60;99.90;;;;;;4948364;28;20035;-72
2023/03/12 00:45:53;;;;;;;4.40;2.33;;;0.60;99.90;;;;;;4951961;28;20391;-72
2023/03/12 00:48:18;;;;;;;7.65;2.40;;;0.50;99.90;;;;;;4945524;28;20034;-71
2023/03/12 00:50:44;;;;;;;8.35;4.03;;;0.50;99.90;;;;;;4942363;28;20081;-72
2023/03/12 00:53:09;;;;;;;6.05;2.35;;;0.50;99.90;;;;;;4951672;28;20066;-72
2023/03/12 00:55:38;;;;;;;7.95;2.63;;;0.50;99.90;;;;;;4951823;28;20034;-71
2023/03/12 00:58:03;;;;;;;6.90;2.95;;;0.40;99.90;;;;;;4950657;28;20023;-72
2023/03/12 01:00:30;;;;;;;9.32;2.53;;;0.50;99.90;;;;;;4955436;28;20039;-72
2023/03/12 01:02:56;;;;;;;7.32;3.22;;;0.40;99.90;;;;;;4951151;28;20472;-72
2023/03/12 01:05:21;;;;;;;11.07;3.78;;;0.40;99.90;;;;;;4951389;28;20238;-71
2023/03/12 01:07:47;;;;;;;7.72;3.33;;;0.40;99.90;;;;;;4950664;28;20384;-72
2023/03/12 01:10:16;;;;;;;5.70;2.90;;;0.40;99.90;;;;;;4947854;28;20031;-71
2023/03/12 01:12:42;;;;;;;7.95;3.42;;;0.40;99.90;;;;;;4952040;28;20035;-71
2023/03/12 01:15:09;;;;;;;9.45;3.58;;;0.40;99.90;;;;;;4959680;28;20026;-71
2023/03/12 01:17:35;;;;;;;8.52;3.53;;;0.40;99.90;;;;;;4948967;28;20412;-71
2023/03/12 01:20:00;;;;;;;9.20;3.95;;;0.40;99.90;;;;;;4950087;28;20035;-71
2023/03/12 01:22:26;;;;;;;11.02;3.45;;;0.40;99.90;;;;;;4955177;28;20086;-71
2023/03/12 01:24:51;;;;;;;9.00;3.80;;;0.40;99.90;;;;;;4952486;28;20035;-72
2023/03/12 01:27:17;;;;;;;11.35;3.67;;;0.50;99.90;;;;;;4956020;28;20027;-72
2023/03/12 01:29:43;;;;;;;12.23;3.75;;;0.50;99.90;;;;;;4956705;28;20042;-72
2023/03/12 01:32:08;;;;;;;6.40;3.25;;;0.50;99.90;;;;;;4950668;28;20027;-72
2023/03/12 01:34:34;;;;;;;7.43;2.80;;;0.60;99.90;;;;;;4951316;28;20020;-72
2023/03/12 01:37:00;;;;;;;8.50;3.55;;;0.60;99.90;;;;;;4956877;28;20038;-72
2023/03/12 01:39:26;;;;;;;11.80;3.50;;;0.60;99.90;;;;;;4955644;28;20145;-72
2023/03/12 01:41:52;;;;;;;10.23;3.08;;;0.60;99.90;;;;;;4954844;28;20418;-72
2023/03/12 01:44:17;;;;;;;10.45;3.45;;;0.70;99.90;;;;;;4956891;28;20094;-72
2023/03/12 01:46:44;;;;;;;12.48;4.03;;;0.70;99.90;;;;;;4954885;28;20045;-72
2023/03/12 01:49:30;;;;;;;7.63;3.83;;;0.70;99.90;;;;;;4955158;28;20027;-72
2023/03/12 01:52:07;;;;;;;8.27;3.10;;;0.80;99.90;;;;;;4954851;28;20072;-72
2023/03/12 01:54:39;;;;;;;12.32;3.20;;;0.80;99.90;;;;;;4967102;28;20027;-72
2023/03/12 01:57:09;;;;;;;7.07;3.80;;;0.80;99.90;;;;;;4954357;28;20022;-72
2023/03/12 01:59:41;;;;;;;11.15;3.78;;;0.80;99.90;;;;;;4952479;28;20027;-72
2023/03/12 02:02:08;;;;;;;7.53;3.55;;;0.90;99.90;;;;;;4956126;28;20043;-72
2023/03/12 02:04:35;;;;;;;6.90;3.10;;;0.90;99.90;;;;;;4967227;28;20039;-72
2023/03/12 02:07:01;;;;;;;8.38;3.58;;;0.90;99.90;;;;;;4954296;28;20024;-72
2023/03/12 02:09:27;;;;;;;8.25;3.40;;;1.00;99.90;;;;;;4954257;28;20369;-72
2023/03/12 02:11:52;;;;;;;7.03;3.58;;;1.00;99.90;;;;;;4948550;28;20437;-73
2023/03/12 02:14:18;;;;;;;12.55;3.75;;;1.00;99.90;;;;;;4952186;28;20027;-72
2023/03/12 02:16:44;;;;;;;8.60;3.33;;;1.00;99.90;;;;;;4965518;28;20548;-72
2023/03/12 02:19:26;;;;;;;9.52;3.90;;;1.00;99.90;;;;;;4953134;28;20027;-72
2023/03/12 02:21:52;;;;;;;10.70;4.55;;;1.00;99.90;;;;;;4953949;28;20101;-72
2023/03/12 02:24:52;;;;;;;8.35;4.03;;;1.00;99.90;;;;;;4949638;28;20420;-72
2023/03/12 02:27:20;;;;;;;8.65;4.15;;;1.10;99.90;;;;;;4947946;28;20069;-71
2023/03/12 02:29:46;;;;;;;12.15;5.28;;;1.00;99.90;;;;;;4949937;28;20039;-71
2023/03/12 02:32:20;;;;;;;9.60;3.83;;;1.00;99.90;;;;;;4948577;28;20037;-71
2023/03/12 02:34:46;;;;;;;12.98;4.57;;;1.10;99.90;;;;;;4942680;28;20039;-71
2023/03/12 02:37:12;;;;;;;12.68;3.55;;;1.10;99.90;;;;;;4948726;28;20034;-71
2023/03/12 02:39:40;;;;;;;10.95;4.47;;;1.10;99.90;;;;;;4948976;28;20031;-72
2023/03/12 02:42:05;;;;;;;10.75;3.88;;;1.10;99.90;;;;;;4954603;28;20060;-72
2023/03/12 02:44:32;;;;;;;9.10;3.80;;;1.10;99.90;;;;;;4944918;28;20595;-72
2023/03/12 02:47:00;;;;;;;9.15;3.78;;;1.20;99.90;;;;;;4947472;28;20720;-72
2023/03/12 02:49:32;;;;;;;8.30;3.72;;;1.20;99.90;;;;;;4947710;28;20047;-72
2023/03/12 02:51:58;;;;;;;15.63;4.13;;;1.20;99.90;;;;;;4953844;28;20500;-72
2023/03/12 02:54:24;;;;;;;7.38;3.40;;;1.20;99.90;;;;;;4952648;28;20022;-71
2023/03/12 02:56:50;;;;;;;9.52;3.30;;;1.20;99.90;;;;;;4944170;28;20428;-71
2023/03/12 02:59:19;;;;;;;11.48;3.65;;;1.30;99.90;;;;;;4949765;28;20094;-71
2023/03/12 03:01:45;;;;;;;7.47;3.42;;;1.30;99.90;;;;;;4949816;28;20051;-72
2023/03/12 03:04:12;;;;;;;9.02;3.35;;;1.30;99.90;;;;;;4951497;28;20042;-72
2023/03/12 03:06:40;;;;;;;9.95;3.92;;;1.30;99.90;;;;;;4949618;28;20563;-72
2023/03/12 03:09:06;;;;;;;6.97;3.45;;;1.30;99.90;;;;;;4943757;28;20377;-71
2023/03/12 03:11:32;;;;;;;7.30;3.38;;;1.40;99.90;;;;;;4951096;28;20029;-72
2023/03/12 03:13:57;;;;;;;7.35;3.72;;;1.30;99.90;;;;;;4951941;28;20369;-72
2023/03/12 03:16:23;;;;;;;9.50;3.58;;;1.40;99.90;;;;;;4952999;28;20031;-71
2023/03/12 03:18:50;;;;;;;9.13;3.72;;;1.40;99.90;;;;;;4950219;28;20027;-72
2023/03/12 03:23:52;;;;;;;5.25;3.20;;;1.40;99.90;;;;;;4950334;28;20058;-74
2023/03/12 03:26:21;;;;;;;7.25;2.90;;;1.50;99.90;;;;;;4949767;28;20027;-74
2023/03/12 03:28:47;;;;;;;9.48;3.47;;;1.50;99.90;;;;;;4953428;28;20027;-75
2023/03/12 03:31:13;;;;;;;10.40;2.95;;;1.50;99.90;;;;;;4949508;28;20034;-74
2023/03/12 03:33:39;;;;;;;6.60;2.70;;;1.50;99.90;;;;;;4947701;28;20389;-73
2023/03/12 03:36:06;;;;;;;10.02;3.22;;;1.50;99.90;;;;;;4949877;28;20030;-72
2023/03/12 03:38:33;;;;;;;7.93;2.80;;;1.50;99.90;;;;;;4949734;28;20090;-73
2023/03/12 03:40:59;;;;;;;5.25;2.42;;;1.50;99.90;;;;;;4945089;28;20015;-72
2023/03/12 03:43:25;;;;;;;7.13;3.15;;;1.50;99.90;;;;;;4949411;28;20492;-73
2023/03/12 03:46:04;;;;;;;6.30;2.72;;;1.50;99.90;;;;;;4949049;28;20137;-72
2023/03/12 03:48:30;;;;;;;9.50;3.42;;;1.50;99.90;;;;;;4947299;29;20449;-73
2023/03/12 03:51:00;;;;;;;7.68;2.80;;;1.50;99.90;;;;;;4948869;28;20078;-73
2023/03/12 03:53:25;;;;;;;7.20;3.03;;;1.50;99.90;;;;;;4949463;28;20473;-72
2023/03/12 03:55:51;;;;;;;8.68;3.20;;;1.50;99.90;;;;;;4950477;28;20034;-72
2023/03/12 03:58:17;;;;;;;5.20;2.58;;;1.60;99.90;;;;;;4950266;28;20114;-71
2023/03/12 04:00:45;;;;;;;12.10;3.72;;;1.60;99.90;;;;;;4941369;28;20024;-72
2023/03/12 04:03:12;;;;;;;6.97;3.30;;;1.70;99.90;;;;;;4949303;28;20042;-72
2023/03/12 04:05:38;;;;;;;8.50;2.83;;;1.70;99.90;;;;;;4948684;28;20030;-72
2023/03/12 04:08:05;;;;;;;6.43;3.30;;;1.70;99.90;;;;;;4950175;28;20073;-72
2023/03/12 04:10:30;;;;;;;7.25;3.22;;;1.70;99.90;;;;;;4944250;28;20035;-72
2023/03/12 04:12:56;;;;;;;9.20;3.70;;;1.80;99.90;;;;;;4944771;28;20050;-71
2023/03/12 04:15:22;;;;;;;9.02;4.00;;;1.80;99.90;;;;;;4945327;28;20492;-73
2023/03/12 04:17:47;;;;;;;7.57;3.80;;;1.90;99.90;;;;;;4949214;28;20039;-73
2023/03/12 04:20:13;;;;;;;10.40;3.70;;;1.90;99.90;;;;;;4946269;28;20514;-74
2023/03/12 04:22:39;;;;;;;10.30;4.25;;;1.90;99.90;;;;;;4945416;28;20033;-73
2023/03/12 04:25:06;;;;;;;11.07;3.95;;;2.00;99.90;;;;;;4963297;28;20384;-72
2023/03/12 04:27:33;;;;;;;8.40;3.78;;;2.00;99.90;;;;;;4948443;28;20051;-73
2023/03/12 04:29:58;;;;;;;10.88;3.80;;;2.00;99.90;;;;;;4947719;28;20094;-74
2023/03/12 04:32:24;;;;;;;9.20;4.32;;;2.00;99.90;;;;;;4946648;28;20035;-74
2023/03/12 04:34:49;;;;;;;7.35;4.13;;;2.00;99.90;;;;;;4943356;28;20031;-74
2023/03/12 04:37:15;;;;;;;10.40;4.10;;;2.10;99.90;;;;;;4947617;28;20102;-74
2023/03/12 04:39:42;;;;;;;9.55;5.40;;;2.10;99.90;;;;;;4950285;28;20049;-74
2023/03/12 04:42:08;;;;;;;9.18;4.45;;;2.10;99.90;;;;;;4946262;28;20156;-75
2023/03/12 04:44:35;;;;;;;11.95;4.13;;;2.10;99.90;;;;;;4943830;28;20485;-74
2023/03/12 04:47:01;;;;;;;7.07;3.80;;;2.10;99.90;;;;;;4947485;28;20476;-75
2023/03/12 04:49:29;;;;;;;8.55;3.65;;;2.10;99.90;;;;;;4948271;28;20043;-74
2023/03/12 04:51:55;;;;;;;10.35;4.22;;;2.10;99.90;;;;;;4944380;28;20146;-73
2023/03/12 04:54:21;;;;;;;7.10;3.55;;;2.10;99.90;;;;;;4950191;28;20485;-73
2023/03/12 04:56:48;;;;;;;7.97;3.63;;;2.20;99.90;;;;;;4953218;28;20031;-73
2023/03/12 04:59:14;;;;;;;8.35;4.00;;;2.20;99.90;;;;;;4948638;28;20035;-73
2023/03/12 05:01:40;;;;;;;7.53;4.05;;;2.20;99.90;;;;;;4951621;28;20038;-73
2023/03/12 05:04:05;;;;;;;8.13;3.63;;;2.20;99.90;;;;;;4951757;28;20035;-73
2023/03/12 05:06:32;;;;;;;11.05;4.38;;;2.20;99.90;;;;;;4946366;28;20130;-73
2023/03/12 05:08:57;;;;;;;7.50;3.60;;;2.20;99.90;;;;;;4951146;28;20094;-74
2023/03/12 05:11:24;;;;;;;9.77;3.50;;;2.30;99.90;;;;;;4948410;28;20036;-74
2023/03/12 05:13:49;;;;;;;5.40;2.90;;;2.30;99.90;;;;;;4950280;28;20368;-73
2023/03/12 05:16:15;;;;;;;5.82;2.85;;;2.40;99.90;;;;;;4951982;28;20023;-74
2023/03/12 05:18:42;;;;;;;6.53;3.50;;;2.40;99.90;;;;;;4950512;28;20024;-74
2023/03/12 05:21:12;;;;;;;6.25;2.58;;;2.40;99.90;;;;;;4951399;28;20034;-73
2023/03/12 05:23:38;;;;;;;7.18;2.42;;;2.50;99.90;;;;;;4953256;28;20039;-74
2023/03/12 05:26:05;;;;;;;5.75;2.67;;;2.60;99.90;;;;;;4950529;28;20156;-74
2023/03/12 05:28:32;;;;;;;7.35;2.22;;;2.60;99.90;;;;;;4945217;28;20046;-74
2023/03/12 05:30:59;;;;;;;6.55;2.10;;;2.60;99.90;;;;;;4950710;28;20059;-74
2023/03/12 05:33:26;;;;;;;6.28;2.10;;;2.70;99.90;;;;;;4949584;29;20023;-74
2023/03/12 05:35:52;;;;;;;7.82;1.88;;;2.80;99.90;;;;;;4950081;28;20110;-74
2023/03/12 05:38:17;;;;;;;5.80;1.83;;;2.80;99.90;;;;;;4950445;28;20135;-75
2023/03/12 05:40:52;;;;;;;4.63;2.17;;;2.80;99.90;;;;;;4951575;28;20492;-74
2023/03/12 05:43:18;;;;;;;4.95;1.85;;;2.90;99.90;;;;;;4962045;28;20330;-73
2023/03/12 05:45:43;;;;;;;5.53;2.50;;;2.90;99.90;;;;;;4966110;28;20031;-73
2023/03/12 05:48:09;;;;;;;5.10;2.33;;;3.00;99.90;;;;;;4950089;28;20105;-72
2023/03/12 05:50:34;;;;;;;6.40;3.03;;;3.00;99.90;;;;;;4950607;28;20388;-73
2023/03/12 05:53:00;;;;;;;8.23;2.80;;;3.00;99.90;;;;;;4952344;28;20519;-73
2023/03/12 05:55:26;;;;;;;5.75;3.67;;;3.10;99.90;;;;;;4950641;28;20035;-73
2023/03/12 05:57:51;;;;;;;7.30;4.13;;;3.10;99.90;;;;;;4952027;28;20601;-73
2023/03/12 06:00:17;;;;;;;11.95;4.55;;;3.10;99.90;;;;;;4946448;28;20038;-73
2023/03/12 06:02:43;;;;;;;7.90;4.53;;;3.10;99.90;;;;;;4952155;28;20034;-73
2023/03/12 06:05:10;;;;;;;6.47;4.07;;;3.20;99.90;;;;;;4953753;28;20110;-73
2023/03/12 06:07:36;;;;;;;8.98;5.32;;;3.10;99.90;;;;;;4950186;28;20062;-73
2023/03/12 06:10:02;;;;;;;11.68;5.30;;;3.20;99.90;;;;;;4953635;28;20054;-72
2023/03/12 06:12:28;;;;;;;11.95;5.13;;;3.20;99.90;;;;;;4951990;28;20035;-73
2023/03/12 06:14:54;;;;;;;13.98;6.40;;;3.20;99.90;;;;;;4950075;28;20031;-72
2023/03/12 06:17:19;;;;;;;12.57;6.22;;;3.20;99.90;;;;;;4951199;28;20027;-73
2023/03/12 06:19:45;;;;;;;13.10;6.38;;;3.20;99.90;;;;;;4954402;28;20043;-73
2023/03/12 06:22:10;;;;;;;11.50;5.93;;;3.20;99.90;;;;;;4965162;28;20297;-72
2023/03/12 06:24:41;;;;;;;12.82;6.38;;;3.30;99.90;;;;;;4954923;28;20031;-73
2023/03/12 06:27:07;;;;;;;12.95;6.05;;;3.30;99.90;;;;;;4948834;28;20034;-72
2023/03/12 06:29:32;;;;;;;11.68;6.45;;;3.30;99.90;;;;;;4952502;28;20036;-72
2023/03/12 06:31:58;;;;;;;16.85;7.72;;;3.30;99.90;;;;;;4949855;28;20023;-72
2023/03/12 06:34:23;;;;;;;13.05;6.43;;;3.40;99.90;;;;;;4945998;28;20539;-72
2023/03/12 06:36:49;;;;;;;13.40;6.60;;;3.40;99.90;;;;;;4946413;28;20055;-72
2023/03/12 06:39:14;;;;;;;11.70;5.53;;;3.40;99.90;;;;;;4945322;28;20111;-72
2023/03/12 06:41:40;;;;;;;13.80;5.45;;;3.40;99.90;;;;;;4950269;28;20031;-72
2023/03/12 06:44:06;;;;;;;10.75;5.28;;;3.40;99.90;;;;;;4947134;28;20113;-74
2023/03/12 06:46:32;;;;;;;10.23;4.75;;;3.40;99.90;;;;;;4948408;28;20036;-71
2023/03/12 06:48:57;;;;;;;6.35;4.20;;;3.30;99.90;;;;;;4948778;28;20023;-73
2023/03/12 06:51:23;;;;;;;7.93;4.60;;;3.20;99.90;;;;;;4943704;28;20065;-73
2023/03/12 06:53:49;;;;;;;8.07;4.82;;;3.20;99.90;;;;;;4948422;28;20033;-73
2023/03/12 06:56:15;;;;;;;11.27;4.85;;;3.10;99.90;;;;;;4952068;28;20441;-74
2023/03/12 06:58:41;;;;;;;9.50;5.10;;;3.10;99.90;;;;;;4952658;28;20031;-73
2023/03/12 07:01:07;;;;;;;18.65;6.30;;;3.00;99.90;;;;;;4948007;28;20253;-72
2023/03/12 07:03:33;;;;;;;10.18;5.20;;;3.00;99.90;;;;;;4950379;28;20035;-73
2023/03/12 07:05:59;;;;;;;14.18;5.45;;;3.00;99.90;;;;;;4963627;28;20062;-74
2023/03/12 07:08:29;;;;;;;11.38;5.95;;;3.00;99.90;;;;;;4948362;28;20036;-73
2023/03/12 07:10:56;;;;;;;10.57;5.60;;;3.00;99.90;;;;;;4948806;28;20019;-73
2023/03/12 07:13:21;;;;;;;12.88;5.68;;;3.00;99.90;;;;;;4953811;28;20023;-73
2023/03/12 07:15:47;;;;;;;12.02;6.78;;;3.00;99.90;;;;;;4948699;28;20038;-72
2023/03/12 07:18:13;;;;;;;9.27;5.25;;;3.10;99.90;;;;;;4947478;28;20038;-72
2023/03/12 07:20:41;;;;;;;12.30;5.88;;;3.10;99.90;;;;;;4948239;28;20114;-72
2023/03/12 07:23:06;;;;;;;12.82;5.57;;;3.00;99.90;;;;;;4950686;28;20101;-73
2023/03/12 07:25:41;;;;;;;10.30;6.30;;;3.10;99.90;;;;;;4949335;28;20111;-73
2023/03/12 07:28:07;;;;;;;10.05;5.10;;;3.00;99.90;;;;;;4948872;28;20035;-73
2023/03/12 07:30:33;;;;;;;11.57;4.68;;;3.00;99.90;;;;;;4947500;28;20031;-74
2023/03/12 07:33:03;;;;;;;12.50;4.70;;;3.00;99.90;;;;;;4947269;28;20404;-74
2023/03/12 07:35:30;;;;;;;9.25;5.57;;;2.90;99.90;;;;;;4949730;28;20075;-73
2023/03/12 07:37:56;;;;;;;8.98;5.07;;;2.90;99.90;;;;;;4949035;28;20515;-73
2023/03/12 07:40:22;;;;;;;12.55;5.40;;;2.90;99.90;;;;;;4962885;28;20204;-73
2023/03/12 07:42:49;;;;;;;12.15;5.13;;;2.90;99.90;;;;;;4949906;28;20076;-73
2023/03/12 07:45:15;;;;;;;13.15;5.40;;;2.90;99.90;;;;;;4950638;28;20487;-73
2023/03/12 07:47:40;;;;;;;8.52;4.75;;;3.00;99.90;;;;;;4949170;28;20160;-73
2023/03/12 07:50:06;;;;;;;12.57;5.88;;;3.00;99.90;;;;;;4951669;28;20057;-73
2023/03/12 07:52:32;;;;;;;8.63;4.93;;;3.00;99.90;;;;;;4945555;28;20035;-72
2023/03/12 07:54:57;;;;;;;9.20;5.00;;;3.00;99.90;;;;;;4947067;28;20027;-73
2023/03/12 07:57:23;;;;;;;12.23;5.72;;;3.00;99.90;;;;;;4950355;28;20035;-73
2023/03/12 07:59:49;;;;;;;9.57;5.05;;;3.10;99.90;;;;;;4949952;28;20038;-74
2023/03/12 08:02:15;;;;;;;14.90;6.30;;;3.10;99.90;;;;;;4946180;28;20049;-73
2023/03/12 08:04:41;;;;;;;8.45;5.18;;;3.20;99.90;;;;;;4962686;28;20079;-72
2023/03/12 08:07:06;;;;;;;11.80;6.00;;;3.30;99.90;;;;;;4948090;28;20031;-72
2023/03/12 08:09:32;;;;;;;9.63;5.00;;;3.30;99.90;;;;;;4958315;28;20073;-73
2023/03/12 08:11:58;;;;;;;9.18;4.85;;;3.50;99.90;;;;;;4950704;28;20024;-72
2023/03/12 08:14:24;;;;;;;11.98;6.30;;;3.60;99.90;;;;;;4952326;28;20115;-73
2023/03/12 08:16:49;;;;;;;11.75;6.78;;;3.70;99.90;;;;;;4947521;28;20122;-72
2023/03/12 08:19:15;;;;;;;9.80;5.78;;;3.90;99.90;;;;;;4945773;28;20082;-73
2023/03/12 08:21:41;;;;;;;11.88;6.00;;;3.90;99.90;;;;;;4949180;28;20093;-74
2023/03/12 08:24:07;;;;;;;11.75;6.45;;;4.00;99.90;;;;;;4948446;28;20031;-73
2023/03/12 08:26:32;;;;;;;13.07;6.55;;;4.00;99.90;;;;;;4949610;28;20035;-73
2023/03/12 08:29:01;;;;;;;14.43;6.53;;;4.10;99.90;;;;;;4944856;28;20031;-73
2023/03/12 08:31:27;;;;;;;16.55;6.70;;;4.20;99.90;;;;;;4947623;28;20246;-74
2023/03/12 08:33:53;;;;;;;13.05;6.72;;;4.20;99.90;;;;;;4952133;28;20467;-73
2023/03/12 08:36:19;;;;;;;16.35;7.68;;;4.30;99.90;;;;;;4948078;28;20054;-73
2023/03/12 08:38:44;;;;;;;11.15;6.97;;;4.40;99.90;;;;;;4949423;28;20070;-74
2023/03/12 08:41:10;;;;;;;12.80;7.45;;;4.50;99.90;;;;;;4945728;28;20436;-74
2023/03/12 08:43:36;;;;;;;15.25;7.90;;;4.50;99.90;;;;;;4950981;28;20035;-73
2023/03/12 08:46:02;;;;;;;15.13;8.20;;;4.60;99.90;;;;;;4947772;28;20396;-73
2023/03/12 08:48:30;;;;;;;15.20;8.45;;;4.70;99.90;;;;;;4945210;28;20132;-73
2023/03/12 08:51:02;;;;;;;10.55;6.13;;;4.80;99.90;;;;;;4946358;28;20070;-73
2023/03/12 08:53:29;;;;;;;11.07;7.38;;;4.90;99.90;;;;;;4962597;28;20047;-74
2023/03/12 08:55:56;;;;;;;11.13;6.88;;;4.90;99.90;;;;;;4962715;28;20081;-74
2023/03/12 08:58:23;;;;;;;11.00;6.53;;;5.00;99.90;;;;;;4946404;28;20032;-73
2023/03/12 09:00:50;;;;;;;12.57;7.75;;;5.10;99.90;;;;;;4941958;28;20051;-73
2023/03/12 09:03:16;;;;;;;9.80;6.25;;;5.10;99.90;;;;;;4949716;28;20086;-72
2023/03/12 09:05:42;;;;;;;13.63;6.55;;;5.20;99.90;;;;;;4951085;28;20114;-74
2023/03/12 09:08:09;;;;;;;11.75;6.18;;;5.30;99.90;;;;;;4942070;28;20252;-74
2023/03/12 09:10:35;;;;;;;9.63;5.95;;;5.40;99.90;;;;;;4944562;28;20027;-73
2023/03/12 09:13:01;;;;;;;11.55;6.68;;;5.40;99.90;;;;;;4946316;28;20078;-73
2023/03/12 09:15:27;;;;;;;11.60;6.80;;;5.50;99.90;;;;;;4942346;28;20035;-73
2023/03/12 09:17:54;;;;;;;11.23;7.50;;;5.60;99.90;;;;;;4946085;28;20296;-73
2023/03/12 09:20:21;;;;;;;13.10;6.75;;;5.60;99.90;;;;;;4945981;28;20020;-74
2023/03/12 09:22:47;;;;;;;11.35;5.70;;;5.70;99.90;;;;;;4954383;28;20051;-77
2023/03/12 09:25:13;;;;;;;11.60;5.80;;;5.80;99.90;;;;;;4957203;28;20050;-79
2023/03/12 09:27:44;;;;;;;13.73;5.45;;;5.80;99.90;;;;;;4958372;29;20051;-78
2023/03/12 09:30:13;;;;;;;8.10;5.50;;;5.90;99.90;;;;;;4955807;28;20058;-79
2023/03/12 09:32:38;;;;;;;9.82;5.90;;;6.00;99.90;;;;;;4955696;28;20055;-79
2023/03/12 09:35:06;;;;;;;10.73;5.38;;;6.10;99.90;;;;;;4952859;28;20030;-78
2023/03/12 09:37:32;;;;;;;11.25;5.55;;;6.20;99.90;;;;;;4955138;28;20396;-79
2023/03/12 09:39:58;;;;;;;10.15;6.15;;;6.30;99.90;;;;;;4958393;28;20054;-80
2023/03/12 09:42:43;;;;;;;11.13;5.47;;;6.40;99.90;;;;;;4960332;28;20031;-78
2023/03/12 09:45:17;;;;;;;7.63;4.60;;;6.50;99.90;;;;;;4957534;29;21286;-79
2023/03/12 09:47:49;;;;;;;7.07;4.97;;;6.70;99.90;;;;;;4959314;28;20044;-79
2023/03/12 09:50:50;;;;;;;8.13;5.32;;;6.70;99.90;;;;;;4963066;28;20023;-80
2023/03/12 09:53:39;;;;;;;9.20;4.93;;;6.90;99.90;;;;;;4958748;28;20054;-81
2023/03/12 09:56:09;;;;;;;10.18;4.80;;;7.00;99.90;;;;;;4956852;29;20125;-78
2023/03/12 09:58:37;;;;;;;7.32;5.20;;;7.10;99.90;;;;;;4960737;29;20015;-79
2023/03/12 10:01:33;;;;;;;10.13;5.47;;;7.30;99.90;;;;;;4953532;29;20027;-81
2023/03/12 10:04:30;;;;;;;8.88;4.63;;;7.40;99.90;;;;;;4955651;28;20019;-79
2023/03/12 10:07:11;;;;;;;6.50;3.35;;;7.60;99.90;;;;;;4957918;28;20023;-79
2023/03/12 10:09:37;;;;;;;5.28;2.47;;;7.70;99.90;;;;;;4960902;28;20082;-78
2023/03/12 10:12:02;;;;;;;5.78;1.58;;;7.80;99.90;;;;;;4958796;28;20024;-77
2023/03/12 10:14:35;;;;;;;6.53;2.08;;;8.10;99.90;;;;;;4968127;28;20038;-79
2023/03/12 10:17:38;;;;;;;5.82;1.50;;;8.30;99.90;;;;;;4957362;28;20034;-81
2023/03/12 10:20:26;;;;;;;3.50;1.30;;;8.50;99.90;;;;;;4956454;28;20134;-78
2023/03/12 10:23:17;;;;;;;4.68;1.45;;;8.70;99.90;;;;;;4960652;28;20031;-79
2023/03/12 10:26:21;;;;;;;5.32;1.27;;;8.80;99.90;;;;;;4970501;28;20027;-81
2023/03/12 10:29:12;;;;;;;3.30;1.37;;;8.90;99.90;;;;;;4943598;28;20062;-78
2023/03/12 10:32:15;;;;;;;3.47;1.02;;;9.00;99.90;;;;;;4957384;29;20055;-78
2023/03/12 10:34:49;;;;;;;2.72;1.00;;;9.10;99.90;;;;;;4955805;28;20222;-80
2023/03/12 10:37:55;;;;;;;3.30;1.10;;;9.10;99.90;;;;;;4949587;28;20381;-80
2023/03/12 10:40:24;;;;;;;4.93;1.38;;;9.20;99.90;;;;;;4933250;29;20035;-79
2023/03/12 10:42:50;;;;;;;2.67;1.10;;;9.30;99.90;;;;;;4953721;28;20028;-79
2023/03/12 10:45:26;;;;;;;6.35;1.15;;;9.30;99.90;;;;;;4955478;29;20067;-78
2023/03/12 10:47:57;;;;;;;5.43;1.20;;;9.30;99.90;;;;;;4956364;29;20031;-77
2023/03/12 10:50:24;;;;;;;3.92;1.15;;;9.40;99.90;;;;;;4957042;28;20047;-77
2023/03/12 10:52:52;;;;;;;5.82;1.35;;;9.40;99.90;;;;;;4957053;28;20055;-77
2023/03/12 10:55:31;;;;;;;4.00;1.27;;;9.50;99.90;;;;;;4952708;28;20023;-77
2023/03/12 10:57:56;;;;;;;2.85;1.08;;;9.50;99.90;;;;;;4957751;28;20027;-77
2023/03/12 11:00:25;;;;;;;6.10;1.20;;;9.50;99.90;;;;;;4954719;28;20105;-78
2023/03/12 11:03:03;;;;;;;3.85;1.30;;;9.50;99.90;;;;;;4958641;28;20019;-76
2023/03/12 11:05:32;;;;;;;6.20;1.10;;;9.60;99.90;;;;;;4954643;29;20110;-77
2023/03/12 11:07:59;;;;;;;7.63;1.63;;;9.50;99.90;;;;;;4957301;28;20146;-79
2023/03/12 11:10:44;;;;;;;4.90;1.17;;;9.50;99.90;;;;;;4949102;28;20038;-79
2023/03/12 11:13:32;;;;;;;5.28;1.27;;;9.50;99.90;;;;;;4956736;28;20035;-80
2023/03/12 11:16:15;;;;;;;6.45;1.52;;;9.60;99.90;;;;;;4972478;28;20028;-79
2023/03/12 11:18:52;;;;;;;5.13;1.38;;;9.60;99.90;;;;;;4962178;28;20031;-77
2023/03/12 11:21:19;;;;;;;6.40;0.93;;;9.60;99.90;;;;;;4958753;28;20126;-79
2023/03/12 11:24:06;;;;;;;3.45;1.20;;;9.60;99.90;;;;;;4958422;28;20035;-80
2023/03/12 11:27:09;;;;;;;3.85;1.45;;;9.70;99.90;;;;;;4961275;28;20047;-81
2023/03/12 11:29:38;;;;;;;7.88;1.70;;;9.70;99.90;;;;;;4956717;28;20039;-79
2023/03/12 11:32:31;;;;;;;4.53;1.10;;;9.70;99.90;;;;;;4957260;28;20024;-80
2023/03/12 11:34:57;;;;;;;8.60;1.02;;;9.70;99.90;;;;;;4955597;29;20393;-80
2023/03/12 11:37:47;;;;;;;9.38;2.10;;;9.80;99.90;;;;;;4973452;28;20156;-78
2023/03/12 11:40:38;;;;;;;7.55;3.17;;;9.80;99.90;;;;;;4953295;28;20041;-81
2023/03/12 11:43:41;;;;;;;4.47;1.13;;;9.80;99.90;;;;;;4970040;28;20481;-80
2023/03/12 11:46:24;;;;;;;3.80;1.27;;;9.90;99.90;;;;;;4956353;28;20066;-81
2023/03/12 11:49:11;;;;;;;6.30;1.20;;;9.90;99.90;;;;;;4953714;29;20039;-82
2023/03/12 11:52:01;;;;;;;5.10;1.10;;;10.00;99.90;;;;;;4955525;28;20023;-82
2023/03/12 11:54:43;;;;;;;7.43;1.35;;;10.20;99.90;;;;;;4954951;28;20041;-80
2023/03/12 11:57:30;;;;;;;5.35;1.42;;;10.40;99.90;;;;;;4953475;28;20020;-79
2023/03/12 12:00:30;;;;;;;8.43;1.25;;;10.40;99.90;;;;;;4955831;28;20038;-81
2023/03/12 12:03:20;;;;;;;6.40;1.33;;;10.50;99.90;;;;;;4955213;28;20030;-81
2023/03/12 12:05:54;;;;;;;4.93;1.42;;;10.60;99.90;;;;;;4955593;28;20038;-80
2023/03/12 12:08:41;;;;;;;5.00;0.98;;;10.70;99.90;;;;;;4956445;28;21260;-81
2023/03/12 12:11:14;;;;;;;3.13;1.10;;;10.80;99.90;;;;;;4956679;28;20055;-81
2023/03/12 12:14:12;;;;;;;6.23;1.00;;;10.80;99.90;;;;;;4954652;28;20087;-81
2023/03/12 12:16:57;;;;;;;13.00;1.70;;;10.90;99.90;;;;;;4952261;28;20508;-82
2023/03/12 12:19:43;;;;;;;3.33;1.08;;;11.10;99.90;;;;;;4959015;28;20463;-81
2023/03/12 12:22:14;;;;;;;2.38;0.93;;;11.20;99.90;;;;;;4957767;28;20114;-81
2023/03/12 12:24:58;;;;;;;5.15;1.50;;;11.30;99.90;;;;;;4955730;28;20090;-80
2023/03/12 12:27:31;;;;;;;3.55;1.40;;;11.50;99.90;;;;;;4954066;28;20036;-79
2023/03/12 12:30:08;;;;;;;6.45;1.20;;;11.60;99.90;;;;;;4959517;28;20297;-81
2023/03/12 12:33:07;;;;;;;2.25;1.00;;;11.70;99.90;;;;;;4957099;28;20099;-81
2023/03/12 12:35:36;;;;;;;6.80;1.05;;;11.80;99.90;;;;;;4955978;28;20090;-80
2023/03/12 12:38:07;;;;;;;5.88;1.50;;;11.90;99.90;;;;;;4957108;29;20039;-81
2023/03/12 12:40:46;;;;;;;5.85;1.10;;;11.90;99.90;;;;;;4970360;28;20034;-80
2023/03/12 12:43:26;;;;;;;8.20;1.67;;;11.90;99.90;;;;;;4955086;28;20027;-80
2023/03/12 12:45:55;;;;;;;6.35;1.30;;;11.90;99.90;;;;;;4963725;28;20032;-81
2023/03/12 12:48:54;;;;;;;5.13;1.25;;;11.80;99.90;;;;;;4956534;28;20039;-81
2023/03/12 12:51:25;;;;;;;5.22;1.20;;;11.90;99.90;;;;;;4943189;28;20620;-79
2023/03/12 12:54:00;;;;;;;2.88;0.90;;;12.00;99.90;;;;;;4954441;28;20020;-78
2023/03/12 12:56:31;;;;;;;6.05;1.30;;;12.00;99.90;;;;;;4956648;28;20492;-76
2023/03/12 12:59:22;;;;;;;4.70;1.20;;;12.10;99.90;;;;;;4968867;28;20038;-81
2023/03/12 13:01:48;;;;;;;4.88;1.58;;;12.20;99.90;;;;;;4974576;28;20054;-80
2023/03/12 13:04:25;;;;;;;4.03;1.15;;;12.20;99.90;;;;;;4960149;28;20019;-80
2023/03/12 13:06:59;;;;;;;7.40;2.20;;;12.30;99.90;;;;;;4957584;29;20030;-79
2023/03/12 13:09:49;;;;;;;5.85;1.83;;;12.30;99.90;;;;;;4957627;28;20100;-79
2023/03/12 13:12:23;;;;;;;7.00;1.90;;;12.30;99.90;;;;;;4953401;29;20000;-80